Polkville, Mississippi
Current Conditions -  °F | °C
As of 8:54 PM on Saturday 22 Nov 2014 (Local Time) from KJAN Reporting Station
Clear Clear  
Wind Chill: 60°   Ceiling: Unl
Heat Index: 60°   Visibility: 10mi
Dew Point: 53°   Wind: 9mph
Humidity: 78%   Direction: 120°ESE
Pressure: 29.99"   Gusts: NA
Location:  32.4637°N, 89.5548°W
Report Text: KJAN 230254Z 12008KT 10SM CLR 16/12 A2999 RMK AO2 SLP155 T01560117 58016
Loading
Personal Weather Stations






























Interactive Weather Map New forecast layout! Learn more

10-Day Weather Forecast

Advertisements
Track Severe Weather on mobile